Time,TemperatureF,DewpointF,PressureIn,WindDirection,WindDirectionDegrees,WindSpeedMPH,WindSpeedGustMPH,Humidity,HourlyPrecipIn,Conditions,Clouds,dailyrainin,SoftwareType,DateUTC
2013-11-17 00:00:00,37.0,34.7,30.32,North,1,0.0,0.0,91,0.00,CLR,SKC,0.00,WeatherDisplay:10.37,2013-11-16 23:00:00,
2013-11-17 00:10:00,37.0,34.7,30.32,North,1,0.0,0.0,91,0.00,CLR,SKC,0.00,WeatherDisplay:10.37,2013-11-16 23:10:00,
2013-11-17 00:20:00,37.0,34.7,30.31,North,1,0.0,0.0,91,0.00,CLR,SKC,0.00,WeatherDisplay:10.37,2013-11-16 23:20:00,
2013-11-17 00:30:00,36.9,34.5,30.31,North,1,0.0,0.0,91,0.00,CLR,SKC,0.00,WeatherDisplay:10.37,2013-11-16 23:30:00,
2013-11-17 00:40:00,36.7,34.3,30.31,North,1,0.0,0.0,91,0.00,CLR,SKC,0.00,WeatherDisplay:10.37,2013-11-16 23:40:00,
2013-11-17 00:50:00,36.5,33.8,30.32,North,1,0.0,0.0,90,0.00,CLR,SKC,0.00,WeatherDisplay:10.37,2013-11-16 23:50:00,
2013-11-17 01:00:00,36.5,33.8,30.31,North,1,0.0,0.0,90,0.00,CLR,SKC,0.00,WeatherDisplay:10.37,2013-11-17 00:00:00,
2013-11-17 01:10:00,36.3,33.7,30.32,North,1,0.0,0.0,90,0.00,CLR,SKC,0.00,WeatherDisplay:10.37,2013-11-17 00:10:00,
2013-11-17 01:20:00,36.3,33.7,30.32,North,1,0.0,0.0,90,0.00,CLR,SKC,0.00,WeatherDisplay:10.37,2013-11-17 00:20:00,
2013-11-17 01:30:00,36.1,33.8,30.31,North,1,0.0,0.0,91,0.00,CLR,SKC,0.00,WeatherDisplay:10.37,2013-11-17 00:30:00,
2013-11-17 01:40:00,36.0,33.6,30.31,North,1,0.0,0.0,91,0.00,CLR,SKC,0.00,WeatherDisplay:10.37,2013-11-17 00:40:00,
2013-11-17 01:50:00,35.8,33.4,30.31,North,1,0.0,0.0,91,0.00,CLR,SKC,0.00,WeatherDisplay:10.37,2013-11-17 00:50:00,
2013-11-17 02:00:00,35.8,33.4,30.30,North,1,0.0,0.0,91,0.00,CLR,SKC,0.00,WeatherDisplay:10.37,2013-11-17 01:00:00,
2013-11-17 02:10:00,35.8,33.4,30.31,North,1,0.0,0.0,91,0.00,CLR,SKC,0.00,WeatherDisplay:10.37,2013-11-17 01:10:00,
2013-11-17 02:20:00,35.4,33.1,30.31,North,1,0.0,0.0,91,0.00,CLR,SKC,0.00,WeatherDisplay:10.37,2013-11-17 01:20:00,
2013-11-17 02:30:00,35.4,33.1,30.30,North,1,0.0,0.0,91,0.00,CLR,SKC,0.00,WeatherDisplay:10.37,2013-11-17 01:30:00,
2013-11-17 02:40:00,35.2,32.9,30.31,North,1,0.0,0.0,91,0.00,CLR,SKC,0.00,WeatherDisplay:10.37,2013-11-17 01:40:00,
2013-11-17 02:50:00,35.1,32.7,30.30,North,1,0.0,0.0,91,0.00,CLR,SKC,0.00,WeatherDisplay:10.37,2013-11-17 01:50:00,
2013-11-17 03:00:00,34.9,32.5,30.30,North,1,0.0,0.0,91,0.00,CLR,SKC,0.00,WeatherDisplay:10.37,2013-11-17 02:00:00,
2013-11-17 03:10:00,34.9,32.5,30.29,North,1,0.0,0.0,91,0.00,CLR,SKC,0.00,WeatherDisplay:10.37,2013-11-17 02:10:00,
2013-11-17 03:20:00,34.7,32.3,30.30,North,1,0.0,0.0,91,0.00,CLR,SKC,0.00,WeatherDisplay:10.37,2013-11-17 02:20:00,
2013-11-17 03:30:00,34.9,32.5,30.29,North,1,0.0,0.0,91,0.00,CLR,SKC,0.00,WeatherDisplay:10.37,2013-11-17 02:30:00,
2013-11-17 03:40:00,34.9,32.5,30.30,North,1,0.0,0.0,91,0.00,CLR,SKC,0.00,WeatherDisplay:10.37,2013-11-17 02:40:00,
2013-11-17 03:50:00,34.5,32.2,30.29,North,1,0.0,0.0,91,0.00,CLR,SKC,0.00,WeatherDisplay:10.37,2013-11-17 02:50:00,
2013-11-17 04:00:00,34.3,32.0,30.30,North,1,0.0,0.0,91,0.00,CLR,SKC,0.00,WeatherDisplay:10.37,2013-11-17 03:00:00,
2013-11-17 04:10:00,34.3,32.0,30.29,North,1,0.0,0.0,91,0.00,CLR,SKC,0.00,WeatherDisplay:10.37,2013-11-17 03:10:00,
2013-11-17 04:20:00,34.3,32.0,30.30,North,1,0.0,0.0,91,0.00,CLR,SKC,0.00,WeatherDisplay:10.37,2013-11-17 03:20:00,
2013-11-17 04:30:00,34.3,32.0,30.30,North,1,0.0,0.0,91,0.00,CLR,SKC,0.00,WeatherDisplay:10.37,2013-11-17 03:30:00,
2013-11-17 04:40:00,34.5,32.2,30.30,North,1,0.0,0.0,91,0.00,CLR,SKC,0.00,WeatherDisplay:10.37,2013-11-17 03:40:00,
2013-11-17 04:50:00,34.5,32.2,30.29,North,1,0.0,0.0,91,0.00,CLR,SKC,0.00,WeatherDisplay:10.37,2013-11-17 03:50:00,
2013-11-17 05:00:00,34.3,32.0,30.29,North,1,0.0,0.0,91,0.00,CLR,SKC,0.00,WeatherDisplay:10.37,2013-11-17 04:00:00,
2013-11-17 05:10:00,34.2,31.8,30.30,North,1,0.0,0.0,91,0.00,CLR,SKC,0.00,WeatherDisplay:10.37,2013-11-17 04:10:00,
2013-11-17 05:20:00,34.3,32.0,30.29,North,1,0.0,0.0,91,0.00,CLR,SKC,0.00,WeatherDisplay:10.37,2013-11-17 04:20:00,
2013-11-17 05:30:00,34.2,31.8,30.29,North,1,0.0,0.0,91,0.00,CLR,SKC,0.00,WeatherDisplay:10.37,2013-11-17 04:30:00,
2013-11-17 05:40:00,34.0,31.6,30.29,North,1,0.0,0.0,91,0.00,CLR,SKC,0.00,WeatherDisplay:10.37,2013-11-17 04:40:00,
2013-11-17 05:50:00,34.0,31.6,30.29,North,1,0.0,0.0,91,0.00,CLR,SKC,0.00,WeatherDisplay:10.37,2013-11-17 04:50:00,
2013-11-17 06:00:00,33.8,31.5,30.29,North,1,0.0,0.0,91,0.00,CLR,SKC,0.00,WeatherDisplay:10.37,2013-11-17 05:00:00,
2013-11-17 06:10:00,33.6,31.3,30.29,North,1,0.0,0.0,91,0.00,CLR,SKC,0.00,WeatherDisplay:10.37,2013-11-17 05:10:00,
2013-11-17 06:20:00,33.8,31.5,30.30,North,1,0.0,0.0,91,0.00,CLR,SKC,0.00,WeatherDisplay:10.37,2013-11-17 05:20:00,
2013-11-17 06:30:00,33.8,31.5,30.30,North,1,0.0,0.0,91,0.00,CLR,SKC,0.00,WeatherDisplay:10.37,2013-11-17 05:30:00,
2013-11-17 06:40:00,33.6,31.3,30.30,North,1,0.0,0.0,91,0.00,CLR,SKC,0.00,WeatherDisplay:10.37,2013-11-17 05:40:00,
2013-11-17 06:50:00,33.6,31.3,30.30,North,1,0.0,0.0,91,0.00,CLR,SKC,0.00,WeatherDisplay:10.37,2013-11-17 05:50:00,
2013-11-17 07:00:00,33.6,31.3,30.30,North,1,0.0,0.0,91,0.00,CLR,SKC,0.00,WeatherDisplay:10.37,2013-11-17 06:00:00,
2013-11-17 07:10:00,33.6,31.3,30.30,North,1,0.0,0.0,91,0.00,CLR,SKC,0.00,WeatherDisplay:10.37,2013-11-17 06:10:00,
2013-11-17 07:20:00,33.9,31.6,30.30,North,1,0.0,0.0,91,0.00,CLR,SKC,0.00,WeatherDisplay:10.37,2013-11-17 06:20:00,
2013-11-17 07:30:00,33.8,31.5,30.30,North,1,0.0,0.0,91,0.00,CLR,SKC,0.00,WeatherDisplay:10.37,2013-11-17 06:30:00,
2013-11-17 07:40:00,33.8,31.5,30.30,North,1,0.0,0.0,91,0.00,CLR,SKC,0.00,WeatherDisplay:10.37,2013-11-17 06:40:00,
2013-11-17 07:50:00,34.0,31.6,30.30,North,1,0.0,0.0,91,0.00,CLR,SKC,0.00,WeatherDisplay:10.37,2013-11-17 06:50:00,
2013-11-17 08:00:00,34.3,31.9,30.31,North,1,0.0,0.0,91,0.00,CLR,SKC,0.00,WeatherDisplay:10.37,2013-11-17 07:00:00,
2013-11-17 08:10:00,34.5,32.4,30.31,North,1,0.0,0.0,92,0.00,CLR,SKC,0.00,WeatherDisplay:10.37,2013-11-17 07:10:00,
2013-11-17 08:20:00,34.9,32.8,30.31,North,1,0.0,0.0,92,0.00,CLR,SKC,0.00,WeatherDisplay:10.37,2013-11-17 07:20:00,
2013-11-17 08:30:00,35.4,33.3,30.31,North,1,0.0,0.0,92,0.00,CLR,SKC,0.00,WeatherDisplay:10.37,2013-11-17 07:30:00,
2013-11-17 08:40:00,35.8,33.7,30.31,North,1,0.0,0.0,92,0.00,CLR,SKC,0.00,WeatherDisplay:10.37,2013-11-17 07:40:00,
2013-11-17 08:50:00,36.1,34.0,30.31,North,1,0.0,0.0,92,0.00,CLR,SKC,0.00,WeatherDisplay:10.37,2013-11-17 07:50:00,
2013-11-17 09:00:00,36.3,34.2,30.31,North,1,0.0,0.0,92,0.00,CLR,SKC,0.00,WeatherDisplay:10.37,2013-11-17 08:00:00,
2013-11-17 09:10:00,36.6,34.5,30.31,North,1,0.0,0.0,92,0.00,CLR,SKC,0.00,WeatherDisplay:10.37,2013-11-17 08:10:00,
2013-11-17 09:20:00,36.8,34.7,30.31,North,1,0.0,0.0,92,0.00,CLR,SKC,0.00,WeatherDisplay:10.37,2013-11-17 08:20:00,
2013-11-17 09:30:00,37.2,35.1,30.31,North,1,0.0,0.0,92,0.00,CLR,SKC,0.00,WeatherDisplay:10.37,2013-11-17 08:30:00,
2013-11-17 09:40:00,37.6,35.5,30.31,North,1,0.0,0.0,92,0.00,CLR,SKC,0.00,WeatherDisplay:10.37,2013-11-17 08:40:00,
2013-11-17 09:50:00,37.6,35.5,30.32,North,1,0.0,0.0,92,0.00,CLR,SKC,0.00,WeatherDisplay:10.37,2013-11-17 08:50:00,
2013-11-17 10:00:00,38.1,35.9,30.32,North,1,0.0,0.0,92,0.00,CLR,SKC,0.00,WeatherDisplay:10.37,2013-11-17 09:00:00,
2013-11-17 10:10:00,38.5,36.4,30.31,North,1,0.0,0.0,92,0.00,CLR,SKC,0.00,WeatherDisplay:10.37,2013-11-17 09:10:00,
2013-11-17 10:20:00,38.8,36.7,30.31,North,1,0.0,0.0,92,0.00,CLR,SKC,0.00,WeatherDisplay:10.37,2013-11-17 09:20:00,
2013-11-17 10:30:00,38.9,36.7,30.31,North,1,0.0,0.0,92,0.00,CLR,SKC,0.00,WeatherDisplay:10.37,2013-11-17 09:30:00,
2013-11-17 10:40:00,39.0,36.9,30.30,North,1,0.0,0.0,92,0.00,CLR,SKC,0.00,WeatherDisplay:10.37,2013-11-17 09:40:00,
2013-11-17 10:50:00,39.4,37.2,30.30,North,1,0.0,0.0,92,0.00,CLR,SKC,0.00,WeatherDisplay:10.37,2013-11-17 09:50:00,
2013-11-17 11:00:00,39.8,37.7,30.30,North,1,0.0,0.0,92,0.00,CLR,SKC,0.00,WeatherDisplay:10.37,2013-11-17 10:00:00,
2013-11-17 11:10:00,40.0,37.9,30.30,North,1,0.0,0.0,92,0.00,CLR,SKC,0.00,WeatherDisplay:10.37,2013-11-17 10:10:00,
2013-11-17 11:20:00,40.4,38.3,30.30,North,1,0.0,0.0,92,0.00,CLR,SKC,0.00,WeatherDisplay:10.37,2013-11-17 10:20:00,
2013-11-17 11:30:00,40.8,38.7,30.29,North,1,0.0,0.0,92,0.00,CLR,SKC,0.00,WeatherDisplay:10.37,2013-11-17 10:30:00,
2013-11-17 11:40:00,41.2,39.0,30.29,North,1,0.0,0.0,92,0.00,CLR,SKC,0.00,WeatherDisplay:10.37,2013-11-17 10:40:00,
2013-11-17 11:50:00,41.7,39.6,30.28,North,1,0.0,0.0,92,0.00,CLR,SKC,0.00,WeatherDisplay:10.37,2013-11-17 10:50:00,
2013-11-17 12:00:00,42.4,40.3,30.28,North,1,0.0,0.0,92,0.00,CLR,SKC,0.00,WeatherDisplay:10.37,2013-11-17 11:00:00,
2013-11-17 12:10:00,42.6,40.5,30.28,North,1,0.0,0.0,92,0.00,CLR,SKC,0.00,WeatherDisplay:10.37,2013-11-17 11:10:00,
2013-11-17 12:20:00,43.0,40.8,30.27,North,1,0.0,0.0,92,0.00,CLR,SKC,0.00,WeatherDisplay:10.37,2013-11-17 11:20:00,
2013-11-17 12:30:00,43.7,41.5,30.27,North,1,0.0,0.0,92,0.00,CLR,SKC,0.00,WeatherDisplay:10.37,2013-11-17 11:30:00,
2013-11-17 12:40:00,44.2,42.1,30.27,North,1,0.0,0.0,92,0.00,CLR,SKC,0.00,WeatherDisplay:10.37,2013-11-17 11:40:00,
2013-11-17 12:50:00,44.2,42.1,30.26,North,1,0.0,0.0,92,0.00,CLR,SKC,0.00,WeatherDisplay:10.37,2013-11-17 11:50:00,
2013-11-17 13:00:00,44.4,42.2,30.26,North,1,0.0,0.0,92,0.00,CLR,SKC,0.00,WeatherDisplay:10.37,2013-11-17 12:00:00,
2013-11-17 13:10:00,44.8,42.6,30.26,North,1,0.0,0.0,92,0.00,CLR,SKC,0.00,WeatherDisplay:10.37,2013-11-17 12:10:00,
2013-11-17 13:20:00,45.0,42.8,30.26,North,1,0.0,0.0,92,0.00,CLR,SKC,0.00,WeatherDisplay:10.37,2013-11-17 12:20:00,
2013-11-17 13:30:00,45.5,43.3,30.26,North,1,0.0,0.0,92,0.00,CLR,SKC,0.00,WeatherDisplay:10.37,2013-11-17 12:30:00,
2013-11-17 13:40:00,45.7,43.5,30.26,North,1,0.0,0.0,92,0.00,CLR,SKC,0.00,WeatherDisplay:10.37,2013-11-17 12:40:00,
2013-11-17 13:50:00,46.2,44.0,30.26,North,1,0.0,0.0,92,0.00,CLR,SKC,0.00,WeatherDisplay:10.37,2013-11-17 12:50:00,
2013-11-17 14:00:00,46.1,43.9,30.25,North,1,0.0,0.0,92,0.00,CLR,SKC,0.00,WeatherDisplay:10.37,2013-11-17 13:00:00,
2013-11-17 14:10:00,46.2,44.0,30.25,North,1,0.0,0.0,92,0.00,CLR,SKC,0.00,WeatherDisplay:10.37,2013-11-17 13:10:00,
2013-11-17 14:20:00,46.2,44.0,30.26,North,1,0.0,0.0,92,0.00,CLR,SKC,0.00,WeatherDisplay:10.37,2013-11-17 13:20:00,
2013-11-17 14:30:00,46.2,44.0,30.25,North,1,0.0,0.0,92,0.00,CLR,SKC,0.00,WeatherDisplay:10.37,2013-11-17 13:30:00,
2013-11-17 14:40:00,46.2,44.0,30.25,North,1,0.0,0.0,92,0.00,CLR,SKC,0.00,WeatherDisplay:10.37,2013-11-17 13:40:00,
2013-11-17 14:50:00,46.6,44.1,30.24,North,1,0.0,0.0,91,0.00,CLR,SKC,0.00,WeatherDisplay:10.37,2013-11-17 13:50:00,
2013-11-17 15:00:00,46.9,44.4,30.24,North,1,0.0,0.0,91,0.00,CLR,SKC,0.00,WeatherDisplay:10.37,2013-11-17 14:00:00,
2013-11-17 15:10:00,47.1,44.6,30.25,North,1,0.0,0.0,91,0.00,CLR,SKC,0.00,WeatherDisplay:10.37,2013-11-17 14:10:00,
2013-11-17 15:20:00,47.3,44.5,30.25,North,1,0.0,0.0,90,0.00,CLR,SKC,0.00,WeatherDisplay:10.37,2013-11-17 14:20:00,
2013-11-17 15:30:00,47.3,44.2,30.25,North,1,0.0,0.0,89,0.00,CLR,SKC,0.00,WeatherDisplay:10.37,2013-11-17 14:30:00,
2013-11-17 15:40:00,47.1,44.0,30.24,North,1,0.0,0.0,89,0.00,CLR,SKC,0.00,WeatherDisplay:10.37,2013-11-17 14:40:00,
2013-11-17 15:50:00,46.9,43.6,30.24,North,1,0.0,0.0,88,0.00,CLR,SKC,0.00,WeatherDisplay:10.37,2013-11-17 14:50:00,
2013-11-17 16:00:00,46.6,42.9,30.24,North,1,0.0,0.0,87,0.00,CLR,SKC,0.00,WeatherDisplay:10.37,2013-11-17 15:00:00,
2013-11-17 16:10:00,46.0,42.4,30.24,North,1,0.0,0.0,87,0.00,CLR,SKC,0.00,WeatherDisplay:10.37,2013-11-17 15:10:00,
2013-11-17 16:20:00,45.5,41.9,30.24,North,1,0.0,0.0,87,0.00,CLR,SKC,0.00,WeatherDisplay:10.37,2013-11-17 15:20:00,
2013-11-17 16:30:00,45.1,41.5,30.24,North,1,0.0,0.0,87,0.00,CLR,SKC,0.00,WeatherDisplay:10.37,2013-11-17 15:30:00,
2013-11-17 16:40:00,44.8,41.1,30.25,North,1,0.0,0.0,87,0.00,CLR,SKC,0.00,WeatherDisplay:10.37,2013-11-17 15:40:00,
2013-11-17 16:50:00,44.2,40.6,30.25,North,1,0.0,0.0,87,0.00,CLR,SKC,0.00,WeatherDisplay:10.37,2013-11-17 15:50:00,
2013-11-17 17:00:00,43.8,40.5,30.25,North,1,0.0,0.0,88,0.00,CLR,SKC,0.00,WeatherDisplay:10.37,2013-11-17 16:00:00,
2013-11-17 17:10:00,43.5,40.2,30.24,North,1,0.0,0.0,88,0.00,CLR,SKC,0.00,WeatherDisplay:10.37,2013-11-17 16:10:00,
2013-11-17 17:20:00,43.3,40.0,30.25,North,1,0.0,0.0,88,0.00,CLR,SKC,0.00,WeatherDisplay:10.37,2013-11-17 16:20:00,
2013-11-17 17:30:00,43.2,39.8,30.25,North,1,0.0,0.0,88,0.00,CLR,SKC,0.00,WeatherDisplay:10.37,2013-11-17 16:30:00,
2013-11-17 17:40:00,43.0,40.0,30.25,North,1,0.0,0.0,89,0.00,CLR,SKC,0.00,WeatherDisplay:10.37,2013-11-17 16:40:00,
2013-11-17 17:50:00,42.6,39.6,30.25,North,1,0.0,0.0,89,0.00,CLR,SKC,0.00,WeatherDisplay:10.37,2013-11-17 16:50:00,
2013-11-17 18:00:00,42.6,39.6,30.25,North,1,0.0,0.0,89,0.00,CLR,SKC,0.00,WeatherDisplay:10.37,2013-11-17 17:00:00,
2013-11-17 18:10:00,42.6,39.6,30.25,North,1,0.0,0.0,89,0.00,CLR,SKC,0.00,WeatherDisplay:10.37,2013-11-17 17:10:00,
2013-11-17 18:20:00,42.4,39.4,30.25,North,1,0.0,0.0,89,0.00,CLR,SKC,0.00,WeatherDisplay:10.37,2013-11-17 17:20:00,
2013-11-17 18:30:00,41.9,38.9,30.25,North,1,0.0,0.0,89,0.00,CLR,SKC,0.00,WeatherDisplay:10.37,2013-11-17 17:30:00,
2013-11-17 18:40:00,41.7,38.7,30.25,North,1,0.0,0.0,89,0.00,CLR,SKC,0.00,WeatherDisplay:10.37,2013-11-17 17:40:00,
2013-11-17 18:50:00,41.5,38.8,30.24,North,1,0.0,0.0,90,0.00,CLR,SKC,0.00,WeatherDisplay:10.37,2013-11-17 17:50:00,
2013-11-17 19:00:00,41.5,38.8,30.25,North,1,0.0,0.0,90,0.00,CLR,SKC,0.00,WeatherDisplay:10.37,2013-11-17 18:00:00,
2013-11-17 19:10:00,41.7,39.0,30.25,North,1,0.0,0.0,90,0.00,CLR,SKC,0.00,WeatherDisplay:10.37,2013-11-17 18:10:00,
2013-11-17 19:20:00,41.5,38.8,30.25,North,1,0.0,0.0,90,0.00,CLR,SKC,0.00,WeatherDisplay:10.37,2013-11-17 18:20:00,
2013-11-17 19:30:00,41.2,38.5,30.25,North,1,0.0,0.0,90,0.00,CLR,SKC,0.00,WeatherDisplay:10.37,2013-11-17 18:30:00,
2013-11-17 19:40:00,41.2,38.5,30.24,North,1,0.0,0.0,90,0.00,CLR,SKC,0.00,WeatherDisplay:10.37,2013-11-17 18:40:00,
2013-11-17 19:50:00,40.8,38.1,30.24,North,1,0.0,0.0,90,0.00,CLR,SKC,0.00,WeatherDisplay:10.37,2013-11-17 18:50:00,
2013-11-17 20:00:00,40.6,37.9,30.25,North,1,0.0,0.0,90,0.00,CLR,SKC,0.00,WeatherDisplay:10.37,2013-11-17 19:00:00,
2013-11-17 20:10:00,40.8,38.1,30.25,North,1,0.0,0.0,90,0.00,CLR,SKC,0.00,WeatherDisplay:10.37,2013-11-17 19:10:00,
2013-11-17 20:20:00,40.8,38.1,30.25,North,1,0.0,0.0,90,0.00,CLR,SKC,0.00,WeatherDisplay:10.37,2013-11-17 19:20:00,
2013-11-17 20:30:00,40.3,37.6,30.25,North,1,0.0,0.0,90,0.00,CLR,SKC,0.00,WeatherDisplay:10.37,2013-11-17 19:30:00,
2013-11-17 20:40:00,39.7,37.0,30.25,North,1,0.0,0.0,90,0.00,CLR,SKC,0.00,WeatherDisplay:10.37,2013-11-17 19:40:00,
2013-11-17 20:50:00,39.4,36.7,30.25,North,1,0.0,0.0,90,0.00,CLR,SKC,0.00,WeatherDisplay:10.37,2013-11-17 19:50:00,
2013-11-17 21:00:00,39.0,36.3,30.24,North,1,0.0,0.0,90,0.00,CLR,SKC,0.00,WeatherDisplay:10.37,2013-11-17 20:00:00,
2013-11-17 21:10:00,38.8,36.2,30.24,North,1,0.0,0.0,90,0.00,CLR,SKC,0.00,WeatherDisplay:10.37,2013-11-17 20:10:00,
2013-11-17 21:20:00,38.4,35.7,30.24,North,1,0.0,0.0,90,0.00,CLR,SKC,0.00,WeatherDisplay:10.37,2013-11-17 20:20:00,
2013-11-17 21:30:00,38.1,35.4,30.24,North,1,0.0,0.0,90,0.00,CLR,SKC,0.00,WeatherDisplay:10.37,2013-11-17 20:30:00,
2013-11-17 21:40:00,38.1,35.7,30.24,North,1,0.0,0.0,91,0.00,CLR,SKC,0.00,WeatherDisplay:10.37,2013-11-17 20:40:00,
2013-11-17 21:50:00,38.1,35.7,30.24,North,1,0.0,0.0,91,0.00,CLR,SKC,0.00,WeatherDisplay:10.37,2013-11-17 20:50:00,
2013-11-17 22:00:00,38.1,35.7,30.25,North,1,0.0,0.0,91,0.00,CLR,SKC,0.00,WeatherDisplay:10.37,2013-11-17 21:00:00,
2013-11-17 22:10:00,38.3,35.9,30.25,North,1,0.0,0.0,91,0.00,CLR,SKC,0.00,WeatherDisplay:10.37,2013-11-17 21:10:00,
2013-11-17 22:20:00,38.5,36.1,30.24,North,1,0.0,0.0,91,0.00,CLR,SKC,0.00,WeatherDisplay:10.37,2013-11-17 21:20:00,
2013-11-17 22:30:00,38.5,36.1,30.25,North,1,0.0,0.0,91,0.00,CLR,SKC,0.00,WeatherDisplay:10.37,2013-11-17 21:30:00,
2013-11-17 22:40:00,38.8,36.4,30.24,North,1,0.0,0.0,91,0.00,CLR,SKC,0.00,WeatherDisplay:10.37,2013-11-17 21:40:00,
2013-11-17 22:50:00,38.8,36.4,30.25,North,1,0.0,0.0,91,0.00,CLR,SKC,0.00,WeatherDisplay:10.37,2013-11-17 21:50:00,
2013-11-17 23:00:00,39.0,36.6,30.25,North,1,0.0,0.0,91,0.00,CLR,SKC,0.00,WeatherDisplay:10.37,2013-11-17 22:00:00,
2013-11-17 23:10:00,39.0,36.6,30.24,North,1,0.0,0.0,91,0.00,CLR,SKC,0.00,WeatherDisplay:10.37,2013-11-17 22:10:00,
2013-11-17 23:20:00,39.0,36.6,30.24,North,1,0.0,0.0,91,0.00,CLR,SKC,0.00,WeatherDisplay:10.37,2013-11-17 22:20:00,
2013-11-17 23:30:00,38.8,36.4,30.24,North,1,0.0,0.0,91,0.00,CLR,SKC,0.00,WeatherDisplay:10.37,2013-11-17 22:30:00,
2013-11-17 23:40:00,39.0,36.6,30.24,North,1,0.0,0.0,91,0.00,CLR,SKC,0.00,WeatherDisplay:10.37,2013-11-17 22:40:00,
2013-11-17 23:50:00,39.0,36.6,30.24,North,1,0.0,0.0,91,0.00,CLR,SKC,0.00,WeatherDisplay:10.37,2013-11-17 22:50:00,